createdAt,value
2023-01-31T00:01:31.045Z,94.46
2023-01-31T00:04:00.015Z,95.02
2023-01-31T00:06:29.358Z,95.19
2023-01-31T00:08:56.222Z,95.15
2023-01-31T00:11:25.298Z,94.76
2023-01-31T00:13:53.691Z,95.04
2023-01-31T00:16:21.847Z,95.21
2023-01-31T00:18:48.642Z,95.61
2023-01-31T00:21:21.480Z,95.50
2023-01-31T00:23:48.880Z,95.29
2023-01-31T00:26:19.325Z,94.84
2023-01-31T00:28:47.207Z,94.92
2023-01-31T00:31:15.373Z,95.08
2023-01-31T00:33:44.567Z,95.44
2023-01-31T00:36:16.500Z,96.14
2023-01-31T00:38:47.750Z,95.63
2023-01-31T00:41:14.239Z,95.72
2023-01-31T00:43:40.793Z,95.34
2023-01-31T00:46:08.569Z,96.25
2023-01-31T00:48:35.456Z,96.13
2023-01-31T00:51:02.301Z,96.13
2023-01-31T00:53:28.976Z,96.14
2023-01-31T00:56:01.737Z,96.55
2023-01-31T00:58:28.303Z,96.35
2023-01-31T01:00:55.969Z,96.67
2023-01-31T01:03:22.473Z,96.35
2023-01-31T01:05:49.807Z,96.10
2023-01-31T01:08:16.256Z,96.77
2023-01-31T01:10:42.703Z,96.88
2023-01-31T01:13:09.112Z,96.91
2023-01-31T01:15:38.994Z,96.47
2023-01-31T01:18:05.531Z,96.47
2023-01-31T01:20:32.316Z,96.14
2023-01-31T01:22:59.235Z,96.20
2023-01-31T01:25:25.719Z,96.47
2023-01-31T01:27:52.126Z,96.42
2023-01-31T01:30:18.660Z,96.44
2023-01-31T01:32:45.179Z,97.14
2023-01-31T01:35:11.624Z,96.62
2023-01-31T01:37:38.063Z,96.41
2023-01-31T01:40:05.069Z,96.32
2023-01-31T01:42:36.315Z,96.88
2023-01-31T01:45:15.683Z,97.08
2023-01-31T01:47:52.708Z,97.13
2023-01-31T01:50:36.626Z,97.17
2023-01-31T01:53:10.914Z,97.05
2023-01-31T01:55:45.899Z,97.37
2023-01-31T01:58:21.887Z,96.29
2023-01-31T02:00:49.962Z,97.00
2023-01-31T02:03:18.279Z,96.56
2023-01-31T02:05:58.236Z,96.18
2023-01-31T02:08:30.159Z,96.38
2023-01-31T02:11:03.144Z,96.26
2023-01-31T02:13:30.744Z,96.50
2023-01-31T02:15:58.341Z,96.45
2023-01-31T02:18:25.984Z,96.61
2023-01-31T02:21:11.753Z,96.30
2023-01-31T02:23:55.744Z,96.72
2023-01-31T02:26:40.638Z,96.52
2023-01-31T02:29:20.084Z,96.46
2023-01-31T02:31:49.586Z,96.57
2023-01-31T02:34:19.404Z,96.53
2023-01-31T02:36:59.248Z,96.42
2023-01-31T02:39:30.587Z,96.22
2023-01-31T02:42:21.490Z,96.22
2023-01-31T02:45:16.320Z,96.18
2023-01-31T02:48:04.916Z,96.29
2023-01-31T02:50:41.925Z,95.59
2023-01-31T02:53:19.270Z,96.10
2023-01-31T02:56:20.411Z,96.10
2023-01-31T02:59:07.392Z,96.30
2023-01-31T03:01:37.997Z,96.03
2023-01-31T03:04:07.488Z,96.32
2023-01-31T03:06:36.904Z,95.98
2023-01-31T03:09:28.342Z,96.25
2023-01-31T03:12:00.854Z,96.15
2023-01-31T03:14:33.861Z,96.14
2023-01-31T03:17:31.762Z,96.33
2023-01-31T03:20:32.758Z,96.30
2023-01-31T03:23:04.916Z,96.38
2023-01-31T03:25:35.554Z,96.36
2023-01-31T03:28:09.220Z,96.75
2023-01-31T03:30:41.958Z,96.55
2023-01-31T03:33:16.267Z,96.76
2023-01-31T03:35:47.607Z,96.68
2023-01-31T03:38:27.791Z,97.02
2023-01-31T03:41:08.348Z,96.78
2023-01-31T03:44:03.546Z,96.68
2023-01-31T03:46:39.906Z,96.39
2023-01-31T03:49:10.614Z,96.79
2023-01-31T03:51:42.310Z,97.07
2023-01-31T03:54:16.046Z,97.34
2023-01-31T03:57:00.955Z,97.00
2023-01-31T03:59:32.676Z,96.99
2023-01-31T04:02:01.754Z,96.91
2023-01-31T04:04:35.772Z,97.25
2023-01-31T04:07:02.422Z,96.99
2023-01-31T04:09:30.553Z,97.05
2023-01-31T04:12:01.093Z,96.98
2023-01-31T04:14:28.806Z,96.73
2023-01-31T04:16:55.282Z,96.72
2023-01-31T04:19:21.767Z,96.62
2023-01-31T04:21:48.306Z,96.29
2023-01-31T04:24:14.778Z,96.71
2023-01-31T04:26:41.293Z,96.80
2023-01-31T04:29:07.726Z,96.96
2023-01-31T04:31:34.313Z,96.81
2023-01-31T04:34:00.885Z,97.08
2023-01-31T04:36:27.767Z,97.04
2023-01-31T04:38:54.233Z,96.99
2023-01-31T04:41:20.640Z,97.06
2023-01-31T04:43:47.423Z,97.12
2023-01-31T04:46:13.939Z,96.96
2023-01-31T04:48:41.295Z,97.12
2023-01-31T04:51:08.595Z,96.92
2023-01-31T04:53:35.132Z,96.54
2023-01-31T04:56:02.413Z,97.06
2023-01-31T04:58:28.883Z,96.77
2023-01-31T05:00:55.576Z,97.25
2023-01-31T05:03:22.110Z,97.20
2023-01-31T05:05:49.801Z,96.98
2023-01-31T05:08:17.125Z,96.81
2023-01-31T05:10:43.573Z,97.54
2023-01-31T05:13:11.096Z,97.16
2023-01-31T05:15:38.320Z,97.54
2023-01-31T05:18:04.910Z,96.78
2023-01-31T05:20:36.523Z,96.92
2023-01-31T05:23:03.111Z,96.86
2023-01-31T05:25:31.535Z,97.37
2023-01-31T05:27:58.794Z,96.55
2023-01-31T05:30:25.438Z,97.14
2023-01-31T05:32:52.473Z,97.45
2023-01-31T05:35:19.722Z,97.46
2023-01-31T05:37:46.533Z,97.51
2023-01-31T05:40:16.814Z,97.31
2023-01-31T05:42:43.853Z,96.84
2023-01-31T05:45:11.445Z,97.01
2023-01-31T05:47:38.058Z,96.80
2023-01-31T05:50:04.940Z,97.28
2023-01-31T05:52:31.480Z,96.63
2023-01-31T05:54:58.016Z,96.83
2023-01-31T05:57:24.512Z,97.22
2023-01-31T05:59:50.955Z,97.03
2023-01-31T06:02:17.472Z,96.74
2023-01-31T06:04:43.897Z,97.37
2023-01-31T06:07:10.314Z,97.23
2023-01-31T06:09:38.744Z,97.29
2023-01-31T06:12:05.521Z,97.12
2023-01-31T06:14:32.446Z,97.40
2023-01-31T06:16:59.171Z,97.40
2023-01-31T06:19:25.975Z,96.85
2023-01-31T06:21:52.595Z,96.66
2023-01-31T06:24:19.193Z,97.20
2023-01-31T06:26:45.714Z,97.27
2023-01-31T06:29:12.375Z,97.27
2023-01-31T06:31:39.093Z,97.41
2023-01-31T06:34:06.151Z,97.08
2023-01-31T06:36:33.968Z,97.88
2023-01-31T06:39:00.489Z,97.40
2023-01-31T06:41:26.958Z,97.52
2023-01-31T06:43:53.397Z,96.87
2023-01-31T06:46:19.901Z,97.04
2023-01-31T06:48:48.251Z,97.40
2023-01-31T06:51:17.765Z,97.40
2023-01-31T06:53:44.221Z,96.78
2023-01-31T06:56:10.903Z,96.86
2023-01-31T06:58:37.322Z,96.79
2023-01-31T07:01:08.854Z,96.69
2023-01-31T07:03:35.498Z,96.89
2023-01-31T07:06:02.046Z,96.67
2023-01-31T07:08:28.582Z,96.31
2023-01-31T07:10:55.027Z,96.74
2023-01-31T07:13:21.485Z,96.66
2023-01-31T07:15:47.960Z,96.92
2023-01-31T07:18:14.671Z,96.43
2023-01-31T07:20:41.962Z,96.61
2023-01-31T07:23:09.106Z,96.48
2023-01-31T07:25:36.154Z,95.93
2023-01-31T07:28:05.746Z,96.65
2023-01-31T07:30:32.307Z,96.41
2023-01-31T07:33:00.086Z,95.75
2023-01-31T07:35:26.584Z,96.07
2023-01-31T07:37:53.157Z,96.26
2023-01-31T07:40:19.717Z,95.73
2023-01-31T07:42:46.613Z,95.76
2023-01-31T07:45:23.978Z,96.04
2023-01-31T07:47:51.358Z,95.49
2023-01-31T07:50:18.495Z,96.13
2023-01-31T07:52:56.128Z,95.44
2023-01-31T07:55:22.860Z,95.75
2023-01-31T07:57:49.508Z,95.93
2023-01-31T08:00:34.983Z,95.92
2023-01-31T08:03:20.359Z,95.60
2023-01-31T08:05:47.787Z,95.69
2023-01-31T08:08:14.756Z,95.98
2023-01-31T08:10:41.322Z,95.60
2023-01-31T08:13:07.854Z,95.82
2023-01-31T08:15:34.387Z,95.67
2023-01-31T08:18:01.102Z,95.89
2023-01-31T08:20:27.670Z,95.45
2023-01-31T08:22:56.085Z,95.37
2023-01-31T08:25:23.000Z,94.99
2023-01-31T08:27:49.684Z,95.46
2023-01-31T08:30:16.314Z,95.27
2023-01-31T08:32:43.505Z,95.55
2023-01-31T08:35:10.209Z,94.54
2023-01-31T08:37:36.678Z,94.76
2023-01-31T08:40:03.567Z,95.02
2023-01-31T08:42:30.558Z,94.31
2023-01-31T08:44:57.576Z,94.16
2023-01-31T08:47:24.217Z,94.36
2023-01-31T08:49:50.608Z,94.13
2023-01-31T08:52:17.173Z,93.28
2023-01-31T08:54:43.670Z,93.61
2023-01-31T08:57:10.134Z,93.24
2023-01-31T08:59:36.663Z,92.86
2023-01-31T09:02:03.243Z,93.17
2023-01-31T09:04:30.117Z,92.80
2023-01-31T09:06:56.667Z,93.34
2023-01-31T09:09:25.346Z,93.36
2023-01-31T09:11:51.881Z,92.76
2023-01-31T09:14:18.303Z,92.94
2023-01-31T09:16:46.567Z,93.58
2023-01-31T09:19:13.027Z,92.62
2023-01-31T09:21:39.513Z,92.76
2023-01-31T09:24:06.361Z,92.81
2023-01-31T09:26:33.305Z,92.25
2023-01-31T09:29:01.715Z,92.58
2023-01-31T09:31:28.755Z,92.09
2023-01-31T09:33:55.385Z,92.21
2023-01-31T09:36:23.902Z,92.31
2023-01-31T09:38:54.529Z,91.92
2023-01-31T09:41:38.599Z,91.68
2023-01-31T09:44:21.843Z,91.35
2023-01-31T09:46:59.469Z,91.49
2023-01-31T09:49:31.225Z,92.35
2023-01-31T09:52:03.530Z,92.23
2023-01-31T09:54:36.437Z,92.19
2023-01-31T09:57:11.994Z,92.14
2023-01-31T09:59:48.964Z,92.58
2023-01-31T10:02:47.576Z,92.37
2023-01-31T10:05:32.906Z,91.78
2023-01-31T10:08:05.109Z,92.14
2023-01-31T10:11:00.503Z,92.34
2023-01-31T10:13:39.030Z,91.90
2023-01-31T10:16:28.044Z,92.32
2023-01-31T10:19:04.026Z,91.96
2023-01-31T10:21:36.005Z,92.26
2023-01-31T10:24:15.534Z,91.41
2023-01-31T10:26:46.866Z,91.22
2023-01-31T10:29:34.141Z,90.92
2023-01-31T10:32:08.709Z,90.88
2023-01-31T10:34:50.602Z,91.20
2023-01-31T10:37:48.898Z,91.33
2023-01-31T10:40:23.578Z,91.44
2023-01-31T10:42:52.678Z,91.21
2023-01-31T10:45:22.585Z,91.16
2023-01-31T10:48:19.851Z,91.43
2023-01-31T10:51:26.532Z,90.83
2023-01-31T10:54:09.277Z,91.26
2023-01-31T10:56:38.941Z,90.97
2023-01-31T10:59:12.246Z,91.43
2023-01-31T11:01:38.821Z,92.14
2023-01-31T11:04:23.470Z,92.45
2023-01-31T11:06:49.950Z,92.25
2023-01-31T11:09:16.905Z,92.36
2023-01-31T11:11:55.774Z,92.49
2023-01-31T11:14:23.007Z,93.14
2023-01-31T11:16:55.617Z,93.31
2023-01-31T11:19:39.004Z,93.88
2023-01-31T11:22:06.600Z,93.72
2023-01-31T11:24:34.821Z,94.08
2023-01-31T11:27:04.409Z,94.60
2023-01-31T11:29:38.123Z,95.06
2023-01-31T11:32:14.402Z,95.31
2023-01-31T11:35:10.923Z,96.05
2023-01-31T11:37:53.769Z,96.30
2023-01-31T11:40:35.395Z,96.26
2023-01-31T11:43:19.910Z,96.71
2023-01-31T11:45:54.864Z,96.47
2023-01-31T11:48:33.079Z,96.10
2023-01-31T11:51:03.163Z,96.66
2023-01-31T11:53:38.778Z,96.86
2023-01-31T11:56:22.668Z,97.17
2023-01-31T11:58:54.605Z,96.90
2023-01-31T12:01:24.177Z,97.31
2023-01-31T12:04:03.844Z,97.52
2023-01-31T12:06:36.206Z,97.73
2023-01-31T12:09:05.917Z,97.22
2023-01-31T12:11:34.333Z,97.06
2023-01-31T12:14:06.621Z,97.04
2023-01-31T12:16:35.517Z,97.68
2023-01-31T12:19:13.969Z,97.25
2023-01-31T12:21:58.930Z,97.42
2023-01-31T12:24:40.567Z,97.67
2023-01-31T12:27:12.650Z,97.36
2023-01-31T12:29:58.719Z,97.03
2023-01-31T12:33:02.926Z,97.51
2023-01-31T12:35:57.226Z,96.70
2023-01-31T12:39:08.971Z,96.67
2023-01-31T12:41:41.882Z,96.63
2023-01-31T12:44:31.418Z,96.61
2023-01-31T12:47:30.153Z,96.53
2023-01-31T12:50:25.074Z,95.65
2023-01-31T12:53:16.241Z,94.78
2023-01-31T12:56:00.805Z,94.28
2023-01-31T12:58:42.271Z,93.79
2023-01-31T13:01:33.562Z,93.70
2023-01-31T13:04:18.215Z,93.20
2023-01-31T13:06:52.472Z,91.95
2023-01-31T13:09:26.792Z,92.08
2023-01-31T13:12:01.829Z,90.77
2023-01-31T13:14:34.743Z,91.77
2023-01-31T13:17:04.880Z,91.57
2023-01-31T13:19:51.162Z,91.45
2023-01-31T13:22:31.779Z,91.34
2023-01-31T13:25:23.465Z,90.55
2023-01-31T13:28:00.069Z,90.65
2023-01-31T13:30:44.687Z,90.94
2023-01-31T13:33:50.904Z,90.81
2023-01-31T13:36:43.606Z,90.63
2023-01-31T13:39:23.686Z,90.16
2023-01-31T13:41:50.922Z,90.00
2023-01-31T13:44:17.469Z,89.72
2023-01-31T13:46:59.121Z,89.21
2023-01-31T13:49:46.058Z,88.53
2023-01-31T13:52:25.345Z,88.66
2023-01-31T13:55:03.307Z,89.00
2023-01-31T13:57:34.000Z,88.57
2023-01-31T14:00:27.138Z,88.42
2023-01-31T14:03:10.122Z,89.18
2023-01-31T14:05:42.484Z,89.04
2023-01-31T14:08:35.034Z,88.40
2023-01-31T14:11:22.829Z,88.39
2023-01-31T14:13:50.989Z,87.85
2023-01-31T14:16:37.602Z,87.61
2023-01-31T14:19:24.245Z,87.62
2023-01-31T14:22:00.489Z,86.62
2023-01-31T14:24:56.622Z,86.43
2023-01-31T14:27:24.572Z,86.80
2023-01-31T14:30:06.403Z,86.23
2023-01-31T14:32:57.618Z,86.17
2023-01-31T14:36:02.268Z,85.67
2023-01-31T14:38:50.743Z,85.38
2023-01-31T14:41:32.352Z,85.84
2023-01-31T14:44:36.133Z,85.48
2023-01-31T14:47:27.899Z,85.22
2023-01-31T14:50:03.527Z,85.57
2023-01-31T14:52:52.788Z,85.56
2023-01-31T14:55:44.360Z,85.61
2023-01-31T14:58:19.392Z,85.43
2023-01-31T15:00:53.895Z,85.27
2023-01-31T15:03:28.083Z,85.70
2023-01-31T15:06:06.890Z,86.01
2023-01-31T15:08:38.589Z,85.94
2023-01-31T15:11:41.021Z,85.36
2023-01-31T15:14:35.662Z,85.71
2023-01-31T15:17:07.655Z,85.44
2023-01-31T15:19:45.487Z,85.20
2023-01-31T15:22:13.179Z,84.86
2023-01-31T15:24:45.563Z,85.28
2023-01-31T15:27:28.631Z,85.34
2023-01-31T15:30:05.481Z,85.86
2023-01-31T15:32:40.667Z,85.51
2023-01-31T15:35:20.565Z,85.76
2023-01-31T15:37:55.275Z,85.97
2023-01-31T15:40:25.750Z,85.74
2023-01-31T15:42:52.215Z,84.60
2023-01-31T15:45:24.875Z,85.07
2023-01-31T15:48:16.011Z,85.27
2023-01-31T15:50:54.306Z,85.43
2023-01-31T15:53:23.847Z,85.05
2023-01-31T15:55:53.872Z,85.27
2023-01-31T15:58:23.680Z,85.62
2023-01-31T16:00:52.742Z,85.46
2023-01-31T16:03:25.288Z,85.93
2023-01-31T16:05:53.965Z,85.33
2023-01-31T16:08:37.592Z,85.16
2023-01-31T16:11:09.778Z,85.58
2023-01-31T16:13:41.299Z,85.72
2023-01-31T16:16:14.182Z,85.85
2023-01-31T16:18:45.544Z,85.36
2023-01-31T16:21:29.628Z,85.65
2023-01-31T16:24:08.837Z,86.13
2023-01-31T16:26:39.075Z,86.56
2023-01-31T16:29:14.693Z,86.64
2023-01-31T16:31:51.043Z,86.44
2023-01-31T16:34:35.043Z,86.69
2023-01-31T16:37:07.079Z,86.87
2023-01-31T16:39:36.936Z,87.66
2023-01-31T16:42:23.706Z,87.06
2023-01-31T16:44:51.137Z,87.14
2023-01-31T16:47:39.289Z,86.76
2023-01-31T16:50:18.291Z,86.52
2023-01-31T16:52:50.309Z,85.70
2023-01-31T16:55:20.166Z,85.05
2023-01-31T16:57:47.851Z,85.39
2023-01-31T17:00:23.309Z,85.07
2023-01-31T17:02:52.223Z,85.06
2023-01-31T17:05:22.045Z,85.12
2023-01-31T17:07:49.327Z,84.70
2023-01-31T17:10:26.443Z,84.60
2023-01-31T17:13:19.679Z,84.79
2023-01-31T17:15:46.743Z,84.59
2023-01-31T17:18:13.251Z,84.57
2023-01-31T17:20:45.025Z,84.08
2023-01-31T17:23:12.793Z,84.61
2023-01-31T17:25:40.299Z,85.17
2023-01-31T17:28:07.237Z,84.92
2023-01-31T17:30:34.276Z,85.44
2023-01-31T17:33:00.805Z,85.37
2023-01-31T17:35:31.680Z,84.73
2023-01-31T17:37:58.464Z,85.02
2023-01-31T17:40:25.028Z,85.02
2023-01-31T17:42:57.249Z,84.92
2023-01-31T17:45:24.187Z,84.94
2023-01-31T17:47:50.835Z,85.23
2023-01-31T17:50:25.696Z,85.86
2023-01-31T17:52:53.461Z,85.34
2023-01-31T17:55:23.068Z,85.71
2023-01-31T17:57:50.047Z,85.59
2023-01-31T18:00:18.959Z,85.25
2023-01-31T18:02:45.926Z,85.03
2023-01-31T18:05:16.674Z,84.84
2023-01-31T18:07:45.161Z,85.26
2023-01-31T18:10:11.594Z,85.32
2023-01-31T18:12:38.082Z,85.28
2023-01-31T18:15:04.913Z,85.30
2023-01-31T18:17:31.542Z,85.70
2023-01-31T18:19:58.128Z,85.50
2023-01-31T18:22:25.016Z,85.99
2023-01-31T18:24:52.501Z,85.74
2023-01-31T18:27:19.197Z,85.99
2023-01-31T18:29:45.750Z,85.27
2023-01-31T18:32:12.170Z,86.59
2023-01-31T18:34:38.854Z,85.59
2023-01-31T18:37:10.200Z,86.35
2023-01-31T18:39:36.700Z,85.78
2023-01-31T18:42:03.395Z,85.66
2023-01-31T18:44:30.506Z,86.25
2023-01-31T18:46:57.115Z,86.05
2023-01-31T18:49:24.061Z,86.83
2023-01-31T18:51:50.683Z,86.66
2023-01-31T18:54:17.111Z,85.62
2023-01-31T18:56:44.602Z,85.79
2023-01-31T18:59:11.101Z,86.46
2023-01-31T19:01:37.702Z,86.21
2023-01-31T19:04:04.357Z,86.21
2023-01-31T19:06:35.948Z,86.29
2023-01-31T19:09:05.333Z,86.25
2023-01-31T19:11:32.509Z,86.77
2023-01-31T19:13:59.165Z,86.04
2023-01-31T19:16:27.982Z,86.27
2023-01-31T19:18:55.881Z,86.15
2023-01-31T19:21:24.751Z,86.57
2023-01-31T19:23:54.765Z,86.77
2023-01-31T19:26:21.399Z,87.38
2023-01-31T19:28:48.274Z,86.80
2023-01-31T19:31:20.703Z,86.54
2023-01-31T19:33:56.651Z,87.18
2023-01-31T19:36:25.836Z,86.63
2023-01-31T19:38:52.366Z,87.52
2023-01-31T19:41:21.964Z,86.59
2023-01-31T19:43:50.136Z,87.12
2023-01-31T19:46:17.114Z,87.09
2023-01-31T19:48:43.754Z,86.56
2023-01-31T19:51:16.094Z,86.77
2023-01-31T19:53:43.501Z,85.98
2023-01-31T19:56:10.291Z,86.37
2023-01-31T19:58:37.331Z,86.34
2023-01-31T20:01:05.247Z,86.38
2023-01-31T20:03:32.018Z,86.98
2023-01-31T20:06:09.497Z,86.47
2023-01-31T20:08:36.523Z,86.62
2023-01-31T20:11:04.082Z,86.88
2023-01-31T20:13:30.544Z,87.12
2023-01-31T20:16:02.886Z,86.81
2023-01-31T20:18:30.942Z,87.14
2023-01-31T20:20:57.661Z,86.63
2023-01-31T20:23:24.463Z,86.04
2023-01-31T20:25:52.204Z,86.56
2023-01-31T20:28:20.131Z,85.89
2023-01-31T20:30:47.395Z,85.65
2023-01-31T20:33:14.852Z,85.48
2023-01-31T20:35:42.651Z,85.52
2023-01-31T20:38:10.231Z,85.05
2023-01-31T20:40:37.650Z,85.54
2023-01-31T20:43:04.609Z,85.20
2023-01-31T20:45:31.940Z,85.22
2023-01-31T20:47:59.231Z,84.94
2023-01-31T20:50:26.838Z,85.17
2023-01-31T20:52:54.201Z,84.82
2023-01-31T20:55:20.899Z,84.48
2023-01-31T20:57:50.106Z,84.40
2023-01-31T21:00:21.208Z,84.32
2023-01-31T21:02:49.164Z,84.39
2023-01-31T21:05:17.248Z,83.70
2023-01-31T21:07:43.897Z,84.01
2023-01-31T21:10:12.438Z,84.20
2023-01-31T21:12:39.088Z,84.23
2023-01-31T21:15:06.206Z,83.97
2023-01-31T21:17:39.980Z,83.39
2023-01-31T21:20:08.522Z,84.02
2023-01-31T21:22:35.184Z,84.25
2023-01-31T21:25:01.954Z,83.95
2023-01-31T21:27:28.489Z,83.85
2023-01-31T21:29:54.971Z,83.33
2023-01-31T21:32:21.459Z,83.75
2023-01-31T21:34:47.932Z,83.95
2023-01-31T21:37:14.708Z,84.08
2023-01-31T21:39:41.302Z,84.07
2023-01-31T21:42:15.629Z,84.06
2023-01-31T21:44:43.178Z,83.75
2023-01-31T21:47:10.268Z,83.88
2023-01-31T21:49:36.951Z,83.56
2023-01-31T21:52:03.948Z,83.82
2023-01-31T21:54:30.520Z,83.72
2023-01-31T21:56:57.292Z,84.22
2023-01-31T21:59:23.924Z,84.23
2023-01-31T22:01:51.933Z,84.38
2023-01-31T22:04:23.275Z,84.20
2023-01-31T22:06:50.828Z,84.52
2023-01-31T22:09:17.592Z,84.91
2023-01-31T22:11:45.253Z,85.06
2023-01-31T22:14:13.704Z,85.19
2023-01-31T22:16:41.376Z,85.60
2023-01-31T22:19:09.483Z,85.53
2023-01-31T22:21:37.434Z,85.97
2023-01-31T22:24:06.252Z,86.05
2023-01-31T22:26:38.601Z,86.19
2023-01-31T22:29:07.522Z,86.42
2023-01-31T22:31:34.719Z,86.51
2023-01-31T22:34:03.493Z,86.74
2023-01-31T22:36:30.150Z,87.18
2023-01-31T22:38:56.579Z,87.21
2023-01-31T22:41:23.176Z,87.48
2023-01-31T22:43:51.547Z,87.90
2023-01-31T22:46:21.041Z,87.68
2023-01-31T22:48:50.960Z,88.24
2023-01-31T22:51:20.391Z,88.27
2023-01-31T22:53:47.313Z,88.38
2023-01-31T22:56:16.730Z,88.24
2023-01-31T22:58:43.693Z,88.74
2023-01-31T23:01:17.433Z,88.52
2023-01-31T23:03:45.689Z,88.45
2023-01-31T23:06:13.438Z,88.75
2023-01-31T23:08:40.871Z,88.74
2023-01-31T23:11:13.061Z,88.69
2023-01-31T23:13:41.274Z,88.74
2023-01-31T23:16:09.303Z,88.73
2023-01-31T23:18:36.438Z,89.01
2023-01-31T23:21:20.775Z,88.63
2023-01-31T23:23:47.285Z,88.86
2023-01-31T23:26:13.961Z,88.70
2023-01-31T23:28:40.845Z,88.47
2023-01-31T23:31:07.835Z,88.73
2023-01-31T23:33:34.681Z,88.17
2023-01-31T23:36:01.199Z,88.72
2023-01-31T23:38:27.835Z,88.63
2023-01-31T23:40:54.687Z,88.65
2023-01-31T23:43:22.203Z,88.28
2023-01-31T23:45:49.009Z,87.95
2023-01-31T23:48:15.653Z,87.88
2023-01-31T23:50:42.222Z,87.47
2023-01-31T23:53:08.944Z,87.79
2023-01-31T23:55:35.519Z,87.22
2023-01-31T23:58:02.095Z,87.32
